MSC Talia F — CQIH9 — position and weather

sailwx.info

Track history (hours):
 
Tides and Currents Weather Stations Pressure Air Temp Water Temp Dewpoint Dewpoint Depression Visibility Wind Speed Wind Dir Waves Ship Positions

MSC Talia F

Last reported at 2018-Jul-19 12:57 UTC. Time now 2018-Jul-22 20:01 UTC.
Position N 32°42' E 014°20'.

Length 139 m; draft 8.8 m.

Type: Ship (hazmat cat A). MMSI: 255805965.

Date/timePositionNaut miles runAvg speedWind from/ knotsBaromVisibWave heightAir tempDewpointWater temp
2018-Jul-19 12:57N 32°42' E 014°20'0 0.0
2018-Jul-17 18:17N 32°42' E 014°20'0 0.0
2018-Jul-17 17:59N 32°42' E 014°20'0 0.0
2018-Jul-17 17:29N 32°42' E 014°20'0 0.0
2018-Jul-17 16:59N 32°42' E 014°20'0 0.0
2018-Jul-17 12:17N 32°42' E 014°20'0 0.0
2018-Jul-17 11:56N 32°42' E 014°20'0 0.1
2018-Jul-17 11:23N 32°42' E 014°20'0 0.0
2018-Jul-17 10:59N 32°42' E 014°20'0 0.2
2018-Jul-17 10:26N 32°42' E 014°20'0 0.2
2018-Jul-17 09:44N 32°42' E 014°20'0 0.2
2018-Jul-17 09:29N 32°42' E 014°20'  
2018-Jul-14 06:34N 35°04' E 014°59'112.0
2018-Jul-14 06:28N 35°05' E 014°59'2412.1
2018-Jul-14 04:32N 35°28' E 015°05'15312.7
2018-Jul-13 16:28N 37°60' E 015°33'713.3
2018-Jul-13 15:57N 38°06' E 015°34'611.4
2018-Jul-13 15:25N 38°12' E 015°36'910.5
2018-Jul-13 14:37N 38°19' E 015°43'711.7
2018-Jul-13 14:00N 38°24' E 015°48'4 8.8
2018-Jul-13 13:30N 38°27' E 015°53'1 2.5
2018-Jul-13 12:55N 38°28' E 015°55'0 0.0
2018-Jul-13 12:19N 38°28' E 015°55'0 0.0
2018-Jul-13 11:49N 38°28' E 015°55'0 0.0
2018-Jul-13 11:19N 38°28' E 015°55'0 0.0
2018-Jul-13 10:49N 38°28' E 015°54'0 0.0
2018-Jul-13 10:25N 38°28' E 015°55'0 0.1
2018-Jul-13 10:00N 38°28' E 015°54'0 0.0
2018-Jul-13 09:25N 38°28' E 015°55'0 0.0
2018-Jul-13 08:55N 38°28' E 015°55'0 0.0
2018-Jul-13 08:23N 38°28' E 015°54'0 0.0
2018-Jul-13 07:58N 38°28' E 015°55'0 0.0
2018-Jul-13 07:28N 38°28' E 015°55'0 0.0
2018-Jul-13 06:58N 38°28' E 015°54'0 0.0
2018-Jul-13 06:16N 38°28' E 015°54'0 0.0
2018-Jul-13 05:58N 38°28' E 015°54'0 0.0
2018-Jul-13 05:28N 38°28' E 015°55'0 0.0
2018-Jul-13 04:58N 38°28' E 015°55'0 0.0
2018-Jul-13 04:28N 38°28' E 015°55'0 0.0
2018-Jul-13 03:52N 38°28' E 015°54'0 0.0
2018-Jul-13 03:28N 38°28' E 015°55'0 0.0
2018-Jul-13 02:58N 38°28' E 015°54'0 0.0
2018-Jul-13 02:28N 38°28' E 015°55'0 0.0
2018-Jul-13 01:49N 38°28' E 015°55'0 0.0
2018-Jul-13 01:25N 38°28' E 015°55'0 0.0
2018-Jul-13 00:55N 38°28' E 015°55'0 0.0
2018-Jul-13 00:26N 38°28' E 015°54'0 0.0
2018-Jul-12 23:58N 38°28' E 015°55'0 0.0
2018-Jul-12 22:40N 38°28' E 015°55'0 0.0
2018-Jul-12 22:22N 38°28' E 015°55'0 0.0
2018-Jul-12 21:58N 38°28' E 015°55'0 0.0
2018-Jul-12 21:24N 38°28' E 015°55'0 0.0
2018-Jul-12 20:18N 38°28' E 015°54'0 0.0
2018-Jul-12 20:00N 38°28' E 015°55'0 0.0
2018-Jul-12 19:24N 38°28' E 015°54'0 0.0
2018-Jul-12 18:36N 38°28' E 015°55'0 0.1
2018-Jul-12 18:30N 38°28' E 015°55'0 0.0
2018-Jul-12 18:00N 38°28' E 015°54'0 0.0
2018-Jul-12 17:30N 38°28' E 015°55'0 0.0
2018-Jul-12 16:57N 38°28' E 015°55'0 0.0
2018-Jul-12 16:27N 38°28' E 015°55'0 0.0
2018-Jul-12 15:39N 38°28' E 015°55'0 0.0
2018-Jul-12 15:27N 38°28' E 015°55'0 0.0
2018-Jul-12 14:57N 38°28' E 015°55'0 0.0
2018-Jul-12 14:30N 38°28' E 015°55'0 0.0
2018-Jul-12 13:48N 38°28' E 015°55'0 0.0
2018-Jul-12 13:21N 38°28' E 015°54'0 0.0
2018-Jul-12 13:00N 38°28' E 015°54'0 0.0
2018-Jul-12 12:30N 38°28' E 015°54'0 0.0
2018-Jul-12 11:57N 38°28' E 015°55'0 0.0
2018-Jul-12 11:27N 38°28' E 015°55'0 0.0
2018-Jul-12 11:00N 38°28' E 015°54'0 0.0
2018-Jul-12 10:24N 38°28' E 015°55'0 0.0
2018-Jul-12 10:00N 38°28' E 015°54'0 0.0
2018-Jul-12 09:29N 38°28' E 015°54'0 0.0
2018-Jul-12 03:14N 38°28' E 015°54'0 0.0
2018-Jul-12 02:56N 38°28' E 015°55'0 0.0
2018-Jul-12 02:26N 38°28' E 015°55'0 0.0
2018-Jul-12 00:27N 38°28' E 015°55'0 0.0
2018-Jul-11 23:35N 38°28' E 015°54'0 0.0
2018-Jul-11 23:23N 38°28' E 015°54'0 0.0
2018-Jul-11 22:59N 38°28' E 015°55'0 0.0
2018-Jul-11 21:50N 38°28' E 015°55'0 0.0
2018-Jul-11 20:58N 38°28' E 015°54'0 0.0
2018-Jul-11 19:37N 38°28' E 015°54'0 0.0
2018-Jul-11 19:26N 38°28' E 015°55'0 0.0
2018-Jul-11 17:23N 38°28' E 015°55'0 0.0
2018-Jul-11 17:00N 38°28' E 015°54'0 0.0
2018-Jul-11 16:30N 38°28' E 015°55'0 0.0
2018-Jul-11 16:00N 38°28' E 015°54'0 0.0
2018-Jul-11 15:30N 38°28' E 015°55'0 0.0
2018-Jul-11 15:00N 38°28' E 015°55'0 0.0
2018-Jul-11 14:30N 38°28' E 015°55'0 0.0
2018-Jul-11 14:00N 38°28' E 015°54'0 0.0
2018-Jul-11 13:30N 38°28' E 015°55'0 0.0
2018-Jul-11 13:00N 38°28' E 015°55'0 0.0
2018-Jul-11 12:30N 38°28' E 015°54'1 2.4
2018-Jul-11 11:58N 38°27' E 015°54'2 3.7
2018-Jul-11 11:28N 38°27' E 015°51'2 3.0
2018-Jul-11 10:55N 38°28' E 015°49'7 0.4
2018-Jul-10 16:43N 38°26' E 015°41'3 9.5
2018-Jul-10 16:23N 38°24' E 015°38'512.2
2018-Jul-10 15:59N 38°24' E 015°32'612.8
2018-Jul-10 15:30N 38°22' E 015°24'812.9
2018-Jul-10 14:55N 38°21' E 015°15'512.5
2018-Jul-10 14:30N 38°19' E 015°08'612.3
2018-Jul-10 14:00N 38°18' E 015°01'5512.3
2018-Jul-10 09:31N 38°11' E 013°51'113.2
2018-Jul-10 09:28N 38°11' E 013°50'613.2
2018-Jul-10 09:00N 38°10' E 013°43'713.0
2018-Jul-10 08:30N 38°10' E 013°34'611.3
2018-Jul-10 08:00N 38°09' E 013°27'4 7.7
2018-Jul-10 07:30N 38°07' E 013°23'1 1.7
2018-Jul-10 06:58N 38°08' E 013°22'0 0.0
2018-Jul-10 06:28N 38°08' E 013°22'0 0.0
2018-Jul-10 05:58N 38°08' E 013°22'0 0.0
2018-Jul-10 05:28N 38°08' E 013°22'0 0.0
2018-Jul-10 04:58N 38°08' E 013°22'0 0.0
2018-Jul-10 04:28N 38°08' E 013°22'0 0.0
2018-Jul-10 03:58N 38°08' E 013°22'0 0.0
2018-Jul-10 03:28N 38°08' E 013°22'0 0.0
2018-Jul-10 02:58N 38°08' E 013°22'0 0.0
2018-Jul-10 02:28N 38°08' E 013°22'0 0.0
2018-Jul-10 01:58N 38°08' E 013°22'0 0.0
2018-Jul-10 01:28N 38°08' E 013°22'0 0.0
2018-Jul-10 00:58N 38°08' E 013°22'0 0.0
2018-Jul-10 00:28N 38°08' E 013°22'0 0.0
2018-Jul-09 23:58N 38°08' E 013°22'0 0.0
2018-Jul-09 23:25N 38°08' E 013°22'0 0.0
2018-Jul-09 22:58N 38°08' E 013°22'0 0.0
2018-Jul-09 22:28N 38°08' E 013°22'0 0.0
2018-Jul-09 21:55N 38°08' E 013°22'0 0.0
2018-Jul-09 21:26N 38°08' E 013°22'0 0.0
2018-Jul-09 20:59N 38°08' E 013°22'0 0.0
2018-Jul-09 20:29N 38°08' E 013°22'0 0.0
2018-Jul-09 19:59N 38°08' E 013°22'0 0.0
2018-Jul-09 19:29N 38°08' E 013°22'0 0.0
2018-Jul-09 18:56N 38°08' E 013°22'0 0.0
2018-Jul-09 18:30N 38°08' E 013°22'0 0.0
2018-Jul-09 17:58N 38°08' E 013°22'0 0.0
2018-Jul-09 17:28N 38°08' E 013°22'0 0.0
2018-Jul-09 16:58N 38°08' E 013°22'0 0.0
2018-Jul-09 16:28N 38°08' E 013°22'0 0.0
2018-Jul-09 15:58N 38°08' E 013°22'0 0.0
2018-Jul-09 15:28N 38°08' E 013°22'0 0.0
2018-Jul-09 14:58N 38°08' E 013°22'0 0.0
2018-Jul-09 14:28N 38°08' E 013°22'0 0.0
2018-Jul-09 13:58N 38°08' E 013°22'0 0.0
2018-Jul-09 13:28N 38°08' E 013°22'0 0.0
2018-Jul-09 12:58N 38°08' E 013°22'  
Track history (hours):
 
Tides and Currents Weather Stations Pressure Air Temp Water Temp Dewpoint Dewpoint Depression Visibility Wind Speed Wind Dir Waves Ship Positions

MSC Talia F

Last reported at 2018-Jul-19 12:57 UTC. Time now 2018-Jul-22 20:01 UTC.
Position N 32°42' E 014°20'.

Length 139 m; draft 8.8 m.

Type: Ship (hazmat cat A). MMSI: 255805965.

Date/timePositionNaut miles runAvg speedWind from/ knotsBaromVisibWave heightAir tempDewpointWater temp
2018-Jul-19 12:57N 32°42' E 014°20'0 0.0
2018-Jul-17 18:17N 32°42' E 014°20'0 0.0
2018-Jul-17 17:59N 32°42' E 014°20'0 0.0
2018-Jul-17 17:29N 32°42' E 014°20'0 0.0
2018-Jul-17 16:59N 32°42' E 014°20'0 0.0
2018-Jul-17 12:17N 32°42' E 014°20'0 0.0
2018-Jul-17 11:56N 32°42' E 014°20'0 0.1
2018-Jul-17 11:23N 32°42' E 014°20'0 0.0
2018-Jul-17 10:59N 32°42' E 014°20'0 0.2
2018-Jul-17 10:26N 32°42' E 014°20'0 0.2
2018-Jul-17 09:44N 32°42' E 014°20'0 0.2
2018-Jul-17 09:29N 32°42' E 014°20'  
2018-Jul-14 06:34N 35°04' E 014°59'112.0
2018-Jul-14 06:28N 35°05' E 014°59'2412.1
2018-Jul-14 04:32N 35°28' E 015°05'15312.7
2018-Jul-13 16:28N 37°60' E 015°33'713.3
2018-Jul-13 15:57N 38°06' E 015°34'611.4
2018-Jul-13 15:25N 38°12' E 015°36'910.5
2018-Jul-13 14:37N 38°19' E 015°43'711.7
2018-Jul-13 14:00N 38°24' E 015°48'4 8.8
2018-Jul-13 13:30N 38°27' E 015°53'1 2.5
2018-Jul-13 12:55N 38°28' E 015°55'0 0.0
2018-Jul-13 12:19N 38°28' E 015°55'0 0.0
2018-Jul-13 11:49N 38°28' E 015°55'0 0.0
2018-Jul-13 11:19N 38°28' E 015°55'0 0.0
2018-Jul-13 10:49N 38°28' E 015°54'0 0.0
2018-Jul-13 10:25N 38°28' E 015°55'0 0.1
2018-Jul-13 10:00N 38°28' E 015°54'0 0.0
2018-Jul-13 09:25N 38°28' E 015°55'0 0.0
2018-Jul-13 08:55N 38°28' E 015°55'0 0.0
2018-Jul-13 08:23N 38°28' E 015°54'0 0.0
2018-Jul-13 07:58N 38°28' E 015°55'0 0.0
2018-Jul-13 07:28N 38°28' E 015°55'0 0.0
2018-Jul-13 06:58N 38°28' E 015°54'0 0.0
2018-Jul-13 06:16N 38°28' E 015°54'0 0.0
2018-Jul-13 05:58N 38°28' E 015°54'0 0.0
2018-Jul-13 05:28N 38°28' E 015°55'0 0.0
2018-Jul-13 04:58N 38°28' E 015°55'0 0.0
2018-Jul-13 04:28N 38°28' E 015°55'0 0.0
2018-Jul-13 03:52N 38°28' E 015°54'0 0.0
2018-Jul-13 03:28N 38°28' E 015°55'0 0.0
2018-Jul-13 02:58N 38°28' E 015°54'0 0.0
2018-Jul-13 02:28N 38°28' E 015°55'0 0.0
2018-Jul-13 01:49N 38°28' E 015°55'0 0.0
2018-Jul-13 01:25N 38°28' E 015°55'0 0.0
2018-Jul-13 00:55N 38°28' E 015°55'0 0.0
2018-Jul-13 00:26N 38°28' E 015°54'0 0.0
2018-Jul-12 23:58N 38°28' E 015°55'0 0.0
2018-Jul-12 22:40N 38°28' E 015°55'0 0.0
2018-Jul-12 22:22N 38°28' E 015°55'0 0.0
2018-Jul-12 21:58N 38°28' E 015°55'0 0.0
2018-Jul-12 21:24N 38°28' E 015°55'0 0.0
2018-Jul-12 20:18N 38°28' E 015°54'0 0.0
2018-Jul-12 20:00N 38°28' E 015°55'0 0.0
2018-Jul-12 19:24N 38°28' E 015°54'0 0.0
2018-Jul-12 18:36N 38°28' E 015°55'0 0.1
2018-Jul-12 18:30N 38°28' E 015°55'0 0.0
2018-Jul-12 18:00N 38°28' E 015°54'0 0.0
2018-Jul-12 17:30N 38°28' E 015°55'0 0.0
2018-Jul-12 16:57N 38°28' E 015°55'0 0.0
2018-Jul-12 16:27N 38°28' E 015°55'0 0.0
2018-Jul-12 15:39N 38°28' E 015°55'0 0.0
2018-Jul-12 15:27N 38°28' E 015°55'0 0.0
2018-Jul-12 14:57N 38°28' E 015°55'0 0.0
2018-Jul-12 14:30N 38°28' E 015°55'0 0.0
2018-Jul-12 13:48N 38°28' E 015°55'0 0.0
2018-Jul-12 13:21N 38°28' E 015°54'0 0.0
2018-Jul-12 13:00N 38°28' E 015°54'0 0.0
2018-Jul-12 12:30N 38°28' E 015°54'0 0.0
2018-Jul-12 11:57N 38°28' E 015°55'0 0.0
2018-Jul-12 11:27N 38°28' E 015°55'0 0.0
2018-Jul-12 11:00N 38°28' E 015°54'0 0.0
2018-Jul-12 10:24N 38°28' E 015°55'0 0.0
2018-Jul-12 10:00N 38°28' E 015°54'0 0.0
2018-Jul-12 09:29N 38°28' E 015°54'0 0.0
2018-Jul-12 03:14N 38°28' E 015°54'0 0.0
2018-Jul-12 02:56N 38°28' E 015°55'0 0.0
2018-Jul-12 02:26N 38°28' E 015°55'0 0.0
2018-Jul-12 00:27N 38°28' E 015°55'0 0.0
2018-Jul-11 23:35N 38°28' E 015°54'0 0.0
2018-Jul-11 23:23N 38°28' E 015°54'0 0.0
2018-Jul-11 22:59N 38°28' E 015°55'0 0.0
2018-Jul-11 21:50N 38°28' E 015°55'0 0.0
2018-Jul-11 20:58N 38°28' E 015°54'0 0.0
2018-Jul-11 19:37N 38°28' E 015°54'0 0.0
2018-Jul-11 19:26N 38°28' E 015°55'0 0.0
2018-Jul-11 17:23N 38°28' E 015°55'0 0.0
2018-Jul-11 17:00N 38°28' E 015°54'0 0.0
2018-Jul-11 16:30N 38°28' E 015°55'0 0.0
2018-Jul-11 16:00N 38°28' E 015°54'0 0.0
2018-Jul-11 15:30N 38°28' E 015°55'0 0.0
2018-Jul-11 15:00N 38°28' E 015°55'0 0.0
2018-Jul-11 14:30N 38°28' E 015°55'0 0.0
2018-Jul-11 14:00N 38°28' E 015°54'0 0.0
2018-Jul-11 13:30N 38°28' E 015°55'0 0.0
2018-Jul-11 13:00N 38°28' E 015°55'0 0.0
2018-Jul-11 12:30N 38°28' E 015°54'1 2.4
2018-Jul-11 11:58N 38°27' E 015°54'2 3.7
2018-Jul-11 11:28N 38°27' E 015°51'2 3.0
2018-Jul-11 10:55N 38°28' E 015°49'7 0.4
2018-Jul-10 16:43N 38°26' E 015°41'3 9.5
2018-Jul-10 16:23N 38°24' E 015°38'512.2
2018-Jul-10 15:59N 38°24' E 015°32'612.8
2018-Jul-10 15:30N 38°22' E 015°24'812.9
2018-Jul-10 14:55N 38°21' E 015°15'512.5
2018-Jul-10 14:30N 38°19' E 015°08'612.3
2018-Jul-10 14:00N 38°18' E 015°01'5512.3
2018-Jul-10 09:31N 38°11' E 013°51'113.2
2018-Jul-10 09:28N 38°11' E 013°50'613.2
2018-Jul-10 09:00N 38°10' E 013°43'713.0
2018-Jul-10 08:30N 38°10' E 013°34'611.3
2018-Jul-10 08:00N 38°09' E 013°27'4 7.7
2018-Jul-10 07:30N 38°07' E 013°23'1 1.7
2018-Jul-10 06:58N 38°08' E 013°22'0 0.0
2018-Jul-10 06:28N 38°08' E 013°22'0 0.0
2018-Jul-10 05:58N 38°08' E 013°22'0 0.0
2018-Jul-10 05:28N 38°08' E 013°22'0 0.0
2018-Jul-10 04:58N 38°08' E 013°22'0 0.0
2018-Jul-10 04:28N 38°08' E 013°22'0 0.0
2018-Jul-10 03:58N 38°08' E 013°22'0 0.0
2018-Jul-10 03:28N 38°08' E 013°22'0 0.0
2018-Jul-10 02:58N 38°08' E 013°22'0 0.0
2018-Jul-10 02:28N 38°08' E 013°22'0 0.0
2018-Jul-10 01:58N 38°08' E 013°22'0 0.0
2018-Jul-10 01:28N 38°08' E 013°22'0 0.0
2018-Jul-10 00:58N 38°08' E 013°22'0 0.0
2018-Jul-10 00:28N 38°08' E 013°22'0 0.0
2018-Jul-09 23:58N 38°08' E 013°22'0 0.0
2018-Jul-09 23:25N 38°08' E 013°22'0 0.0
2018-Jul-09 22:58N 38°08' E 013°22'0 0.0
2018-Jul-09 22:28N 38°08' E 013°22'0 0.0
2018-Jul-09 21:55N 38°08' E 013°22'0 0.0
2018-Jul-09 21:26N 38°08' E 013°22'0 0.0
2018-Jul-09 20:59N 38°08' E 013°22'0 0.0
2018-Jul-09 20:29N 38°08' E 013°22'0 0.0
2018-Jul-09 19:59N 38°08' E 013°22'0 0.0
2018-Jul-09 19:29N 38°08' E 013°22'0 0.0
2018-Jul-09 18:56N 38°08' E 013°22'0 0.0
2018-Jul-09 18:30N 38°08' E 013°22'0 0.0
2018-Jul-09 17:58N 38°08' E 013°22'0 0.0
2018-Jul-09 17:28N 38°08' E 013°22'0 0.0
2018-Jul-09 16:58N 38°08' E 013°22'0 0.0
2018-Jul-09 16:28N 38°08' E 013°22'0 0.0
2018-Jul-09 15:58N 38°08' E 013°22'0 0.0
2018-Jul-09 15:28N 38°08' E 013°22'0 0.0
2018-Jul-09 14:58N 38°08' E 013°22'0 0.0
2018-Jul-09 14:28N 38°08' E 013°22'0 0.0
2018-Jul-09 13:58N 38°08' E 013°22'0 0.0
2018-Jul-09 13:28N 38°08' E 013°22'0 0.0
2018-Jul-09 12:58N 38°08' E 013°22'  

Dump ship's entire track history